createdAt,value
2024-04-23T00:01:23.131Z,11.60
2024-04-23T00:03:50.314Z,11.50
2024-04-23T00:06:17.769Z,11.50
2024-04-23T00:08:45.031Z,11.50
2024-04-23T00:11:12.291Z,11.50
2024-04-23T00:13:39.496Z,11.50
2024-04-23T00:16:06.892Z,11.50
2024-04-23T00:18:34.148Z,11.50
2024-04-23T00:21:01.384Z,11.40
2024-04-23T00:23:28.427Z,11.40
2024-04-23T00:25:55.606Z,11.40
2024-04-23T00:28:22.807Z,11.30
2024-04-23T00:30:49.814Z,11.40
2024-04-23T00:33:17.091Z,11.30
2024-04-23T00:35:44.489Z,11.30
2024-04-23T00:38:11.670Z,11.30
2024-04-23T00:40:38.885Z,11.30
2024-04-23T00:43:06.068Z,11.20
2024-04-23T00:45:35.089Z,11.20
2024-04-23T00:48:02.708Z,11.20
2024-04-23T00:50:30.531Z,11.20
2024-04-23T00:52:58.228Z,11.10
2024-04-23T00:55:26.001Z,11.10
2024-04-23T00:57:53.478Z,11.10
2024-04-23T01:00:20.794Z,11.10
2024-04-23T01:02:48.353Z,11.10
2024-04-23T01:05:15.724Z,11.10
2024-04-23T01:08:02.006Z,11.00
2024-04-23T01:10:29.392Z,11.00
2024-04-23T01:12:56.508Z,11.00
2024-04-23T01:15:27.288Z,11.00
2024-04-23T01:18:00.806Z,11.00
2024-04-23T01:20:29.520Z,10.90
2024-04-23T01:23:22.292Z,10.90
2024-04-23T01:25:51.124Z,10.90
2024-04-23T01:28:19.267Z,10.90
2024-04-23T01:30:48.062Z,10.80
2024-04-23T01:33:17.213Z,10.80
2024-04-23T01:35:45.618Z,10.80
2024-04-23T01:38:13.074Z,10.70
2024-04-23T01:40:40.951Z,10.70
2024-04-23T01:43:08.483Z,10.70
2024-04-23T01:45:36.312Z,10.70
2024-04-23T01:48:06.197Z,10.70
2024-04-23T01:50:33.584Z,10.60
2024-04-23T01:53:00.892Z,10.60
2024-04-23T01:55:28.097Z,10.60
2024-04-23T01:57:55.355Z,10.60
2024-04-23T02:00:25.454Z,10.60
2024-04-23T02:02:54.857Z,10.60
2024-04-23T02:05:22.366Z,10.60
2024-04-23T02:07:49.777Z,10.50
2024-04-23T02:10:17.414Z,10.50
2024-04-23T02:12:44.553Z,10.50
2024-04-23T02:15:11.745Z,10.50
2024-04-23T02:17:38.903Z,10.50
2024-04-23T02:20:08.971Z,10.40
2024-04-23T02:22:36.112Z,10.40
2024-04-23T02:25:03.591Z,10.40
2024-04-23T02:27:30.811Z,10.40
2024-04-23T02:29:58.184Z,10.40
2024-04-23T02:32:25.467Z,10.40
2024-04-23T02:34:52.619Z,10.40
2024-04-23T02:37:19.716Z,10.40
2024-04-23T02:39:46.778Z,10.40
2024-04-23T02:42:14.273Z,10.40
2024-04-23T02:44:41.436Z,10.40
2024-04-23T02:47:08.492Z,10.40
2024-04-23T02:49:35.624Z,10.30
2024-04-23T02:52:02.714Z,10.30
2024-04-23T02:54:29.837Z,10.30
2024-04-23T02:56:57.093Z,10.30
2024-04-23T02:59:24.693Z,10.30
2024-04-23T03:02:08.788Z,10.30
2024-04-23T03:04:36.197Z,10.30
2024-04-23T03:07:03.404Z,10.30
2024-04-23T03:09:30.618Z,10.30
2024-04-23T03:11:58.032Z,10.30
2024-04-23T03:14:25.054Z,10.20
2024-04-23T03:16:53.215Z,10.20
2024-04-23T03:19:20.520Z,10.20
2024-04-23T03:21:58.161Z,10.20
2024-04-23T03:24:26.113Z,10.20
2024-04-23T03:26:53.474Z,10.20
2024-04-23T03:29:20.899Z,10.20
2024-04-23T03:31:48.632Z,10.20
2024-04-23T03:34:15.829Z,10.20
2024-04-23T03:36:43.596Z,10.20
2024-04-23T03:39:10.634Z,10.20
2024-04-23T03:41:37.835Z,10.10
2024-04-23T03:44:05.169Z,10.10
2024-04-23T03:46:32.389Z,10.10
2024-04-23T03:48:59.602Z,10.10
2024-04-23T03:51:26.626Z,10.10
2024-04-23T03:53:53.644Z,10.10
2024-04-23T03:56:20.802Z,10.10
2024-04-23T03:58:47.936Z,10.10
2024-04-23T04:01:15.150Z,10.10
2024-04-23T04:04:00.767Z,10.10
2024-04-23T04:06:28.016Z,10.00
2024-04-23T04:08:57.354Z,10.00
2024-04-23T04:11:26.294Z,10.00
2024-04-23T04:13:53.486Z,10.00
2024-04-23T04:16:20.643Z,10.10
2024-04-23T04:18:47.771Z,10.00
2024-04-23T04:21:14.947Z,10.00
2024-04-23T04:23:42.300Z,10.00
2024-04-23T04:26:13.192Z,10.00
2024-04-23T04:28:40.420Z,10.00
2024-04-23T04:31:08.746Z,10.00
2024-04-23T04:33:36.622Z,10.00
2024-04-23T04:36:04.883Z,10.00
2024-04-23T04:38:33.074Z,10.00
2024-04-23T04:41:00.621Z,10.00
2024-04-23T04:43:27.866Z,10.00
2024-04-23T04:45:54.974Z,10.00
2024-04-23T04:48:22.190Z,10.00
2024-04-23T04:50:49.352Z,10.00
2024-04-23T04:53:16.566Z,10.00
2024-04-23T04:55:44.766Z,10.00
2024-04-23T04:58:11.901Z,10.00
2024-04-23T05:00:41.116Z,9.80
2024-04-23T05:03:09.366Z,9.80
2024-04-23T05:05:36.391Z,9.80
2024-04-23T05:08:03.640Z,9.80
2024-04-23T05:10:30.751Z,9.90
2024-04-23T05:12:57.824Z,9.80
2024-04-23T05:15:24.907Z,9.80
2024-04-23T05:17:51.999Z,9.80
2024-04-23T05:20:19.170Z,9.80
2024-04-23T05:22:46.446Z,9.80
2024-04-23T05:25:13.543Z,9.80
2024-04-23T05:27:40.632Z,9.80
2024-04-23T05:30:07.989Z,9.80
2024-04-23T05:32:50.257Z,9.80
2024-04-23T05:35:20.393Z,9.80
2024-04-23T05:37:47.467Z,9.80
2024-04-23T05:40:14.702Z,9.80
2024-04-23T05:42:41.738Z,9.70
2024-04-23T05:45:09.078Z,9.70
2024-04-23T05:48:14.125Z,9.70
2024-04-23T05:51:18.723Z,9.70
2024-04-23T05:54:23.144Z,9.60
2024-04-23T05:56:50.628Z,9.70
2024-04-23T05:59:18.099Z,9.70
2024-04-23T06:01:45.209Z,9.60
2024-04-23T06:04:12.271Z,9.60
2024-04-23T06:06:39.385Z,9.60
2024-04-23T06:09:06.419Z,9.70
2024-04-23T06:11:33.678Z,9.70
2024-04-23T06:14:10.785Z,9.70
2024-04-23T06:16:37.990Z,9.70
2024-04-23T06:19:05.324Z,9.70
2024-04-23T06:21:32.851Z,9.70
2024-04-23T06:23:59.961Z,9.70
2024-04-23T06:26:27.194Z,9.70
2024-04-23T06:28:54.322Z,9.70
2024-04-23T06:31:22.123Z,9.70
2024-04-23T06:33:49.376Z,9.70
2024-04-23T06:36:16.438Z,9.70
2024-04-23T06:38:43.579Z,9.60
2024-04-23T06:41:11.057Z,9.70
2024-04-23T06:43:38.180Z,9.70
2024-04-23T06:46:05.535Z,9.70
2024-04-23T06:48:32.574Z,9.70
2024-04-23T06:51:05.141Z,9.70
2024-04-23T06:53:33.005Z,9.70
2024-04-23T06:56:00.725Z,9.70
2024-04-23T06:58:29.320Z,9.70
2024-04-23T07:01:00.832Z,9.70
2024-04-23T07:03:27.952Z,9.70
2024-04-23T07:05:55.136Z,9.70
2024-04-23T07:08:22.206Z,9.70
2024-04-23T07:10:49.913Z,9.70
2024-04-23T07:13:17.215Z,9.70
2024-04-23T07:15:44.328Z,9.80
2024-04-23T07:18:11.723Z,9.80
2024-04-23T07:20:40.182Z,9.80
2024-04-23T07:23:07.348Z,9.80
2024-04-23T07:25:34.716Z,9.80
2024-04-23T07:28:01.809Z,9.90
2024-04-23T07:30:29.044Z,9.90
2024-04-23T07:32:56.706Z,10.00
2024-04-23T07:35:25.166Z,10.00
2024-04-23T07:37:52.829Z,10.00
2024-04-23T07:40:20.039Z,10.00
2024-04-23T07:42:47.454Z,10.00
2024-04-23T07:45:14.580Z,10.00
2024-04-23T07:47:41.935Z,10.00
2024-04-23T07:50:09.523Z,10.10
2024-04-23T07:52:38.420Z,10.10
2024-04-23T07:55:05.641Z,10.10
2024-04-23T07:57:32.877Z,10.10
2024-04-23T08:00:00.075Z,10.20
2024-04-23T08:02:27.566Z,10.20
2024-04-23T08:04:55.444Z,10.20
2024-04-23T08:07:22.710Z,10.30
2024-04-23T08:09:49.784Z,10.30
2024-04-23T08:12:16.962Z,10.30
2024-04-23T08:14:44.147Z,10.40
2024-04-23T08:17:11.525Z,10.40
2024-04-23T08:19:38.853Z,10.40
2024-04-23T08:22:06.098Z,10.50
2024-04-23T08:24:33.302Z,10.50
2024-04-23T08:27:00.531Z,10.50
2024-04-23T08:29:27.628Z,10.60
2024-04-23T08:31:54.832Z,10.60
2024-04-23T08:34:22.092Z,10.70
2024-04-23T08:36:49.301Z,10.70
2024-04-23T08:39:16.582Z,10.70
2024-04-23T08:41:46.451Z,10.80
2024-04-23T08:44:14.096Z,10.80
2024-04-23T08:46:41.896Z,10.90
2024-04-23T08:49:10.274Z,10.90
2024-04-23T08:51:38.002Z,11.00
2024-04-23T08:54:07.129Z,11.00
2024-04-23T08:56:35.841Z,11.10
2024-04-23T08:59:08.444Z,11.10
2024-04-23T09:01:41.372Z,11.10
2024-04-23T09:04:09.461Z,11.10
2024-04-23T09:06:37.739Z,11.10
2024-04-23T09:09:06.220Z,11.10
2024-04-23T09:11:33.873Z,11.10
2024-04-23T09:14:02.481Z,11.20
2024-04-23T09:16:30.403Z,11.30
2024-04-23T09:18:57.581Z,11.30
2024-04-23T09:21:24.786Z,11.30
2024-04-23T09:23:51.949Z,11.30
2024-04-23T09:26:25.382Z,11.30
2024-04-23T09:28:54.028Z,11.30
2024-04-23T09:31:22.440Z,11.30
2024-04-23T09:33:56.760Z,11.40
2024-04-23T09:36:25.729Z,11.40
2024-04-23T09:38:57.524Z,11.40
2024-04-23T09:41:28.175Z,11.40
2024-04-23T09:43:56.889Z,11.40
2024-04-23T09:46:24.404Z,11.50
2024-04-23T09:48:54.700Z,11.50
2024-04-23T09:51:22.230Z,11.50
2024-04-23T09:53:49.458Z,11.50
2024-04-23T09:56:20.993Z,11.50
2024-04-23T09:58:49.179Z,11.50
2024-04-23T10:01:19.643Z,11.50
2024-04-23T10:03:51.715Z,11.50
2024-04-23T10:06:25.171Z,11.50
2024-04-23T10:09:05.025Z,11.50
2024-04-23T10:11:40.542Z,11.50
2024-04-23T10:14:21.788Z,11.60
2024-04-23T10:17:02.125Z,11.60
2024-04-23T10:19:32.919Z,11.50
2024-04-23T10:22:04.781Z,11.60
2024-04-23T10:24:32.480Z,11.60
2024-04-23T10:27:00.160Z,11.60
2024-04-23T10:29:29.189Z,11.70
2024-04-23T10:39:39.602Z,11.70
2024-04-23T10:42:23.448Z,11.70
2024-04-23T10:44:51.328Z,11.70
2024-04-23T10:47:18.745Z,11.70
2024-04-23T10:49:53.254Z,11.70
2024-04-23T10:52:21.948Z,11.70
2024-04-23T10:54:51.602Z,11.90
2024-04-23T10:57:19.094Z,11.90
2024-04-23T10:59:46.396Z,11.90
2024-04-23T11:02:14.447Z,11.90
2024-04-23T11:04:42.937Z,11.90
2024-04-23T11:07:12.498Z,11.90
2024-04-23T11:09:47.289Z,11.90
2024-04-23T11:12:24.714Z,11.90
2024-04-23T11:14:53.279Z,11.90
2024-04-23T11:17:21.873Z,11.90
2024-04-23T11:19:54.477Z,11.90
2024-04-23T11:22:45.890Z,11.90
2024-04-23T11:25:23.307Z,11.90
2024-04-23T11:27:51.359Z,11.90
2024-04-23T11:30:18.829Z,11.90
2024-04-23T11:32:46.562Z,11.80
2024-04-23T11:35:15.699Z,11.90
2024-04-23T11:37:43.137Z,11.90
2024-04-23T11:40:10.672Z,11.90
2024-04-23T11:42:37.902Z,11.90
2024-04-23T11:45:05.913Z,11.90
2024-04-23T11:47:35.239Z,12.00
2024-04-23T11:50:07.968Z,12.00
2024-04-23T11:52:35.700Z,12.00
2024-04-23T11:55:05.353Z,12.00
2024-04-23T11:57:33.149Z,12.10
2024-04-23T12:00:03.181Z,12.00
2024-04-23T12:02:33.322Z,12.10
2024-04-23T12:05:05.114Z,12.10
2024-04-23T12:07:33.093Z,12.10
2024-04-23T12:10:05.615Z,12.10
2024-04-23T12:12:37.636Z,12.10
2024-04-23T12:15:07.392Z,12.20
2024-04-23T12:17:39.419Z,12.20
2024-04-23T12:20:11.397Z,12.20
2024-04-23T12:22:38.770Z,12.20
2024-04-23T12:25:06.697Z,12.20
2024-04-23T12:27:33.804Z,12.20
2024-04-23T12:30:12.047Z,12.20
2024-04-23T12:32:42.314Z,12.20
2024-04-23T12:35:10.492Z,12.20
2024-04-23T12:37:37.946Z,12.20
2024-04-23T12:40:06.599Z,12.20
2024-04-23T12:42:35.328Z,12.20
2024-04-23T12:45:04.376Z,12.20
2024-04-23T12:47:31.811Z,12.20
2024-04-23T12:49:59.020Z,12.30
2024-04-23T12:52:26.241Z,12.20
2024-04-23T12:54:53.465Z,12.30
2024-04-23T12:57:21.391Z,12.20
2024-04-23T12:59:49.852Z,12.20
2024-04-23T13:02:17.004Z,12.30
2024-04-23T13:04:44.313Z,12.20
2024-04-23T13:07:13.796Z,12.30
2024-04-23T13:09:41.295Z,12.30
2024-04-23T13:12:12.041Z,12.30
2024-04-23T13:14:39.971Z,12.30
2024-04-23T13:17:07.516Z,12.30
2024-04-23T13:19:35.541Z,12.30
2024-04-23T13:22:05.749Z,12.30
2024-04-23T13:24:34.953Z,12.30
2024-04-23T13:27:02.200Z,12.30
2024-04-23T13:29:32.108Z,12.30
2024-04-23T13:32:01.238Z,12.20
2024-04-23T13:34:28.712Z,12.20
2024-04-23T13:36:56.498Z,12.20
2024-04-23T13:39:25.796Z,12.20
2024-04-23T13:41:53.140Z,12.30
2024-04-23T13:44:20.421Z,12.30
2024-04-23T13:46:47.713Z,12.30
2024-04-23T13:49:16.384Z,12.30
2024-04-23T13:51:43.716Z,12.30
2024-04-23T13:54:11.144Z,12.30
2024-04-23T13:56:38.350Z,12.30
2024-04-23T13:59:06.105Z,12.30
2024-04-23T14:01:33.301Z,12.30
2024-04-23T14:04:00.687Z,12.30
2024-04-23T14:06:28.405Z,12.30
2024-04-23T14:08:55.561Z,12.30
2024-04-23T14:11:25.009Z,12.30
2024-04-23T14:13:54.996Z,12.30
2024-04-23T14:16:22.428Z,12.40
2024-04-23T14:18:49.879Z,12.30
2024-04-23T14:21:16.936Z,12.30
2024-04-23T14:23:47.021Z,12.30
2024-04-23T14:26:19.110Z,12.40
2024-04-23T14:28:46.469Z,12.30
2024-04-23T14:31:13.612Z,12.40
2024-04-23T14:33:45.372Z,12.40
2024-04-23T14:36:13.543Z,12.40
2024-04-23T14:38:41.713Z,12.40
2024-04-23T14:41:09.359Z,12.40
2024-04-23T14:43:36.851Z,12.40
2024-04-23T14:46:13.741Z,12.40
2024-04-23T14:48:42.116Z,12.40
2024-04-23T14:51:10.614Z,12.40
2024-04-23T14:53:37.880Z,12.40
2024-04-23T14:56:06.638Z,12.50
2024-04-23T14:58:36.700Z,12.50
2024-04-23T15:01:12.843Z,12.50
2024-04-23T15:03:40.307Z,12.40
2024-04-23T15:06:08.526Z,12.40
2024-04-23T15:08:37.574Z,12.40
2024-04-23T15:11:05.803Z,12.50
2024-04-23T15:13:34.360Z,12.40
2024-04-23T15:16:11.142Z,12.50
2024-04-23T15:18:40.507Z,12.50
2024-04-23T15:21:09.701Z,12.50
2024-04-23T15:23:37.310Z,12.50
2024-04-23T15:26:06.040Z,12.50
2024-04-23T15:28:41.729Z,12.50
2024-04-23T15:31:09.674Z,12.50
2024-04-23T15:33:38.293Z,12.50
2024-04-23T15:36:12.464Z,12.50
2024-04-23T15:38:44.115Z,12.50
2024-04-23T15:41:15.130Z,12.50
2024-04-23T15:43:42.551Z,12.50
2024-04-23T15:46:16.887Z,12.50
2024-04-23T15:48:45.124Z,12.50
2024-04-23T15:51:12.503Z,12.50
2024-04-23T15:53:39.952Z,12.50
2024-04-23T15:56:12.682Z,12.50
2024-04-23T15:58:40.573Z,12.50
2024-04-23T16:01:10.327Z,12.50
2024-04-23T16:03:39.553Z,12.50
2024-04-23T16:06:07.275Z,12.50
2024-04-23T16:08:35.456Z,12.50
2024-04-23T16:11:06.295Z,12.50
2024-04-23T16:13:33.836Z,12.50
2024-04-23T16:16:02.098Z,12.50
2024-04-23T16:18:30.318Z,12.50
2024-04-23T16:21:04.572Z,12.50
2024-04-23T16:23:32.163Z,12.50
2024-04-23T16:26:03.534Z,12.50
2024-04-23T16:28:30.725Z,12.50
2024-04-23T16:31:02.261Z,12.50
2024-04-23T16:33:29.791Z,12.50
2024-04-23T16:36:01.470Z,12.50
2024-04-23T16:38:28.690Z,12.50
2024-04-23T16:40:59.940Z,12.50
2024-04-23T16:43:27.354Z,12.50
2024-04-23T16:45:54.520Z,12.50
2024-04-23T16:48:22.046Z,12.50
2024-04-23T16:50:53.889Z,12.50
2024-04-23T16:53:25.962Z,12.50
2024-04-23T16:55:56.773Z,12.50
2024-04-23T16:58:23.862Z,12.50
2024-04-23T17:00:50.993Z,12.50
2024-04-23T17:03:18.409Z,12.50
2024-04-23T17:05:45.878Z,12.50
2024-04-23T17:08:13.366Z,12.50
2024-04-23T17:10:45.152Z,12.50
2024-04-23T17:13:12.484Z,12.50
2024-04-23T17:15:39.517Z,12.50
2024-04-23T17:18:06.782Z,12.50
2024-04-23T17:20:37.868Z,12.50
2024-04-23T17:23:05.348Z,12.50
2024-04-23T17:25:32.850Z,12.50
2024-04-23T17:27:59.891Z,12.50
2024-04-23T17:30:26.947Z,12.50
2024-04-23T17:32:54.589Z,12.50
2024-04-23T17:35:22.199Z,12.50
2024-04-23T17:37:50.733Z,12.50
2024-04-23T17:40:20.183Z,12.50
2024-04-23T17:42:47.401Z,12.50
2024-04-23T17:45:14.713Z,12.50
2024-04-23T17:47:42.235Z,12.50
2024-04-23T17:50:11.858Z,12.50
2024-04-23T17:52:39.154Z,12.50
2024-04-23T17:55:08.817Z,12.50
2024-04-23T17:57:36.131Z,12.50
2024-04-23T18:00:06.687Z,12.50
2024-04-23T18:02:34.275Z,12.50
2024-04-23T18:05:02.488Z,12.50
2024-04-23T18:07:29.824Z,12.50
2024-04-23T18:09:57.024Z,12.50
2024-04-23T18:12:24.164Z,12.50
2024-04-23T18:14:51.563Z,12.50
2024-04-23T18:17:19.038Z,12.50
2024-04-23T18:19:46.171Z,12.50
2024-04-23T18:22:13.292Z,12.50
2024-04-23T18:24:40.647Z,12.40
2024-04-23T18:27:07.859Z,12.40
2024-04-23T18:29:35.186Z,12.40
2024-04-23T18:32:02.534Z,12.40
2024-04-23T18:34:30.945Z,12.40
2024-04-23T18:36:58.255Z,12.30
2024-04-23T18:39:25.348Z,12.30
2024-04-23T18:41:52.443Z,12.30
2024-04-23T18:44:19.574Z,12.30
2024-04-23T18:46:46.732Z,12.30
2024-04-23T18:49:13.973Z,12.30
2024-04-23T18:51:41.078Z,12.20
2024-04-23T18:54:08.304Z,12.20
2024-04-23T18:56:36.469Z,12.20
2024-04-23T18:59:03.705Z,12.20
2024-04-23T19:01:30.924Z,12.20
2024-04-23T19:03:58.142Z,12.20
2024-04-23T19:06:25.432Z,12.10
2024-04-23T19:08:53.388Z,12.20
2024-04-23T19:11:27.579Z,12.10
2024-04-23T19:14:04.343Z,12.10
2024-04-23T19:16:41.108Z,12.10
2024-04-23T19:19:11.389Z,12.10
2024-04-23T19:21:38.806Z,12.10
2024-04-23T19:24:06.402Z,12.10
2024-04-23T19:26:33.554Z,12.10
2024-04-23T19:29:00.883Z,12.00
2024-04-23T19:31:28.156Z,12.00
2024-04-23T19:33:55.432Z,12.00
2024-04-23T19:36:28.094Z,12.00
2024-04-23T19:38:55.374Z,12.00
2024-04-23T19:41:22.553Z,12.00
2024-04-23T19:43:53.303Z,12.00
2024-04-23T19:46:25.151Z,11.90
2024-04-23T19:48:53.567Z,11.90
2024-04-23T19:51:24.072Z,11.90
2024-04-23T19:53:51.477Z,11.90
2024-04-23T19:56:31.912Z,11.90
2024-04-23T19:59:01.855Z,11.90
2024-04-23T20:01:29.706Z,11.90
2024-04-23T20:03:57.015Z,11.80
2024-04-23T20:06:24.391Z,11.80
2024-04-23T20:08:51.728Z,11.70
2024-04-23T20:11:18.999Z,11.70
2024-04-23T20:13:46.224Z,11.70
2024-04-23T20:16:13.392Z,11.70
2024-04-23T20:18:40.656Z,11.70
2024-04-23T20:21:13.910Z,11.70
2024-04-23T20:23:44.597Z,11.70
2024-04-23T20:26:15.490Z,11.70
2024-04-23T20:28:43.397Z,11.70
2024-04-23T20:31:10.599Z,11.60
2024-04-23T20:33:37.857Z,11.60
2024-04-23T20:36:05.827Z,11.60
2024-04-23T20:38:33.130Z,11.60
2024-04-23T20:41:16.800Z,11.50
2024-04-23T20:43:44.312Z,11.50
2024-04-23T20:46:11.768Z,11.50
2024-04-23T20:48:42.506Z,11.50
2024-04-23T20:51:09.879Z,11.50
2024-04-23T20:53:36.963Z,11.50
2024-04-23T20:56:06.453Z,11.50
2024-04-23T20:58:34.147Z,11.50
2024-04-23T21:01:12.007Z,11.50
2024-04-23T21:03:40.942Z,11.50
2024-04-23T21:06:14.651Z,11.50
2024-04-23T21:08:42.592Z,11.40
2024-04-23T21:11:12.487Z,11.40
2024-04-23T21:13:39.606Z,11.40
2024-04-23T21:16:06.936Z,11.30
2024-04-23T21:18:34.126Z,11.30
2024-04-23T21:21:01.165Z,11.30
2024-04-23T21:23:28.530Z,11.30
2024-04-23T21:25:55.737Z,11.30
2024-04-23T21:28:25.384Z,11.20
2024-04-23T21:30:59.709Z,11.20
2024-04-23T21:33:29.135Z,11.10
2024-04-23T21:35:56.714Z,11.10
2024-04-23T21:38:23.922Z,11.10
2024-04-23T21:40:51.057Z,11.10
2024-04-23T21:43:18.195Z,11.10
2024-04-23T21:45:45.966Z,11.10
2024-04-23T21:48:16.313Z,11.10
2024-04-23T21:50:44.895Z,11.00
2024-04-23T21:53:12.333Z,11.00
2024-04-23T21:55:39.549Z,11.00
2024-04-23T21:58:06.855Z,11.00
2024-04-23T22:00:34.006Z,10.90
2024-04-23T22:03:01.282Z,10.90
2024-04-23T22:05:28.930Z,10.90
2024-04-23T22:07:56.246Z,10.90
2024-04-23T22:10:24.903Z,10.80
2024-04-23T22:12:52.618Z,10.80
2024-04-23T22:15:28.189Z,10.80
2024-04-23T22:18:02.932Z,10.80
2024-04-23T22:20:30.338Z,10.70
2024-04-23T22:22:57.545Z,10.70
2024-04-23T22:25:24.722Z,10.70
2024-04-23T22:27:52.051Z,10.60
2024-04-23T22:30:19.488Z,10.60
2024-04-23T22:32:46.798Z,10.60
2024-04-23T22:35:14.241Z,10.50
2024-04-23T22:37:41.501Z,10.50
2024-04-23T22:40:08.860Z,10.50
2024-04-23T22:42:40.585Z,10.50
2024-04-23T22:45:08.488Z,10.40
2024-04-23T22:47:35.962Z,10.40
2024-04-23T22:50:03.344Z,10.40
2024-04-23T22:52:30.750Z,10.30
2024-04-23T22:54:58.234Z,10.30
2024-04-23T22:57:26.260Z,10.30
2024-04-23T22:59:53.368Z,10.20
2024-04-23T23:02:20.656Z,10.20
2024-04-23T23:04:47.795Z,10.20
2024-04-23T23:07:14.996Z,10.20
2024-04-23T23:09:42.773Z,10.10
2024-04-23T23:12:10.186Z,10.10
2024-04-23T23:14:37.555Z,10.10
2024-04-23T23:17:04.769Z,10.00
2024-04-23T23:19:31.904Z,10.00
2024-04-23T23:21:59.769Z,10.00
2024-04-23T23:24:27.188Z,10.00
2024-04-23T23:26:54.334Z,10.00
2024-04-23T23:29:21.579Z,9.90
2024-04-23T23:31:48.797Z,9.90
2024-04-23T23:34:15.936Z,9.90
2024-04-23T23:36:43.079Z,9.80
2024-04-23T23:39:10.183Z,9.80
2024-04-23T23:41:37.378Z,9.80
2024-04-23T23:44:04.635Z,9.70
2024-04-23T23:46:32.851Z,9.70
2024-04-23T23:49:00.232Z,9.70
2024-04-23T23:51:27.792Z,9.60
2024-04-23T23:53:54.944Z,9.60
2024-04-23T23:56:22.043Z,9.60
2024-04-23T23:58:49.227Z,9.50
